Connecticut Logo

Greenwich, CT Single Family Real Estate Listings

529 Total Real Estate Listings * Click on table heading to sort
Date Posted Property Type Style Address Price Living Area Lot Size Price/Sq Ft.
2018-01-19 Single Family Colonial 10 Lakeview Greenwich, CT 06878 $2,995,000 5,800 sq. ft. 12,197 sq. ft. $516
2018-01-19 Single Family Colonial 35 Meeting House Greenwich, CT 06831 $1,670,000 4,118 sq. ft. 179,903 sq. ft. $406
2018-01-19 Single Family Contemporary 115 Dingletown Greenwich, CT 06830 $1,750,000 4,413 sq. ft. 92,783 sq. ft. $397
2018-01-18 Single Family Farm House 7 Lawrence Greenwich, CT 06830 $995,000 1,924 sq. ft. 3,920 sq. ft. $517
2018-01-17 Single Family Colonial 10 Windy Greenwich, CT 06831 $1,399,000 3,205 sq. ft. 5,663 sq. ft. $437
2018-01-16 Single Family Georgian Colonial 47 Alpine Greenwich, CT 06830 $7,195,000 9,405 sq. ft. 94,090 sq. ft. $765
2018-01-16 Single Family Colonial 3 Arrowhead Greenwich, CT 06807 $1,625,000 3,364 sq. ft. 44,867 sq. ft. $483
2018-01-12 Single Family Colonial 140 Park Greenwich, CT 06830 $4,500,000 5,660 sq. ft. 17,860 sq. ft. $795
2018-01-12 Single Family Colonial; Ranch 85 Bowman Greenwich, CT 06831 $1,199,000 5,553 sq. ft. 44,867 sq. ft. $216
2018-01-12 Single Family Colonial 33 Pleasant Greenwich, CT 06878 $1,899,900 6,208 sq. ft. 13,939 sq. ft. $306
2018-01-11 Single Family Colonial 24 Juniper Greenwich, CT 06878 $1,599,000 2,843 sq. ft. 15,682 sq. ft. $562
2018-01-09 Single Family Colonial 510 Valley Greenwich, CT 06807 $3,195,000 5,328 sq. ft. 76,666 sq. ft. $600
2018-01-08 Single Family Colonial 10 Byway Greenwich, CT 06831 $995,000 2,938 sq. ft. 13,939 sq. ft. $339
2018-01-07 Single Family European 634 North Greenwich, CT 06830 $10,750,000 13,000 sq. ft. 87,991 sq. ft. $827
2018-01-03 Single Family Colonial 15 Wyckham Hill Greenwich, CT 06831 $3,495,000 7,669 sq. ft. 189,050 sq. ft. $456
2018-01-02 Single Family Split Level 40 Cassidy Greenwich, CT 06830 $799,000 4,200 sq. ft. 11,326 sq. ft. $190
2017-12-20 Single Family Colonial 599 Lake Greenwich, CT 06830 $4,199,000 8,862 sq. ft. 111,949 sq. ft. $474
2017-12-20 Single Family Split Level 33 Daffodil Greenwich, CT 06807 $1,999,000 4,074 sq. ft. 87,120 sq. ft. $491
2017-12-13 Single Family Farm House 8 Webb Greenwich, CT 06870 $1,745,000 2,637 sq. ft. 9,148 sq. ft. $662
2017-12-11 Single Family Colonial 58 Sherwood Greenwich, CT 06830 $3,750,000 4,000 sq. ft. 5,227 sq. ft. $938
2017-12-08 Single Family Contemporary 5 Sylvan Greenwich, CT 06870 $5,950,000 12,719 sq. ft. 20,038 sq. ft. $468
2017-12-07 Single Family Colonial 28 Oak Greenwich, CT 06831 $4,249,000 12,120 sq. ft. 30,056 sq. ft. $351
2017-12-06 Single Family Ranch 37 Ridge Greenwich, CT 06870 $1,195,000 3,190 sq. ft. 15,246 sq. ft. $375
2017-12-05 Single Family Split Level 45 Mary Greenwich, CT 06878 $979,000 2,014 sq. ft. 11,761 sq. ft. $486
2017-12-04 Single Family Cape Cod 99 Porchuck Greenwich, CT 06831 $975,000 2,838 sq. ft. 174,676 sq. ft. $344
2017-12-04 Single Family Colonial 17 Lyon Greenwich, CT 06830 $725,000 2,463 sq. ft. 6,098 sq. ft. $294
2017-12-03 Single Family Mediterranean 309 Taconic Greenwich, CT 06831 $12,000,000 18,307 sq. ft. 913,889 sq. ft. $655
2017-12-01 Single Family Colonial 9 Thornhill Greenwich, CT 06878 $998,000 2,780 sq. ft. 10,019 sq. ft. $359
2017-11-30 Single Family Colonial 17 Sachem Greenwich, CT 06830 $1,750,000 2,829 sq. ft. 8,276 sq. ft. $619
2017-11-29 Single Family Colonial 25 Hollow Wood Greenwich, CT 06831 $759,000 2,222 sq. ft. 6,098 sq. ft. $342
2017-11-22 Single Family Split Level 9 Swan Greenwich, CT 06830 $1,349,000 2,408 sq. ft. 17,860 sq. ft. $560
2017-11-21 Single Family Colonial 20 Andrews Farm Greenwich, CT 06831 $5,900,000 9,744 sq. ft. 174,240 sq. ft. $606
2017-11-21 Single Family Colonial 36 Nicholas Greenwich, CT 06831 $850,000 2,452 sq. ft. 5,227 sq. ft. $347
2017-11-20 Single Family Colonial 8 Rockwood Lane Greenwich, CT 06830 $3,495,000 5,400 sq. ft. 94,090 sq. ft. $647
2017-11-18 Single Family Contemporary 15 Pilot Rock Greenwich, CT 06878 $6,500,000 3,405 sq. ft. 58,370 sq. ft. $1,909
2017-11-16 Single Family Tudor 544 North Greenwich, CT 06830 $3,250,000 5,546 sq. ft. 93,218 sq. ft. $586
2017-11-13 Single Family Ranch 115 Duncan Greenwich, CT 06831 $2,250,000 11,142 sq. ft. 108,029 sq. ft. $202
2017-11-10 Single Family Colonial 365 Round Hill Greenwich, CT 06831 $1,420,000 3,800 sq. ft. 39,204 sq. ft. $374
2017-11-08 Single Family Ranch 14 Chateau Ridge Greenwich, CT 06831 $2,425,000 10,000 sq. ft. 87,120 sq. ft. $242
2017-11-07 Single Family Colonial 15 Macarthur Greenwich, CT 06870 $1,490,000 4,156 sq. ft. 7,405 sq. ft. $359
2017-11-07 Single Family 108 John Greenwich, CT 06831 $6,300,000 9,007 sq. ft. 344,560 sq. ft. $699
2017-11-04 Single Family Bungalow 32 Pemberwick Greenwich, CT 06831 $519,000 2,232 sq. ft. 4,792 sq. ft. $233
2017-11-03 Single Family Raised Ranch 0 River Greenwich, CT 06830 $959,000 2,376 sq. ft. 7,405 sq. ft. $404
2017-11-03 Single Family Colonial 317 Overlook Greenwich, CT 06830 $1,995,000 3,407 sq. ft. 14,810 sq. ft. $586
2017-11-03 Single Family Colonial 44 Husted Greenwich, CT 06830 $3,150,000 4,193 sq. ft. 101,059 sq. ft. $751
2017-11-03 Single Family French 29 Round Hill Club Greenwich, CT 06831 $15,000,000 11,870 sq. ft. 171,191 sq. ft. $1,264
2017-11-01 Single Family Colonial 7 Dewart Greenwich, CT 06830 $7,950,000 12,530 sq. ft. 136,778 sq. ft. $634
2017-10-30 Single Family Cape Cod 409 Stanwich Greenwich, CT 06830 $1,450,000 2,166 sq. ft. 64,904 sq. ft. $669
2017-10-27 Single Family Mediterranean 108 Cherry Hill Greenwich, CT 06831 $2,575,000 7,084 sq. ft. 89,734 sq. ft. $364
2017-10-27 Single Family Colonial 17 Valley Greenwich, CT 06807 $683,550 1,742 sq. ft. 5,227 sq. ft. $392
2017-10-25 Single Family Cape Cod 15 Carriage Greenwich, CT 06807 $1,365,000 4,783 sq. ft. 87,120 sq. ft. $285
2017-10-25 Single Family Chateau; European 27 Alden Greenwich, CT 06831 $2,250,000 3,557 sq. ft. 38,333 sq. ft. $633
2017-10-24 Single Family Colonial 200 Palmer Hill Greenwich, CT 06870 $2,295,000 5,067 sq. ft. 22,651 sq. ft. $453
2017-10-24 Single Family Colonial; Georgian Colonial 4 Mountain Laurel Greenwich, CT 06831 $2,995,000 6,313 sq. ft. 88,427 sq. ft. $474
2017-10-24 Single Family Colonial 1044 North Greenwich, CT 06831 $1,100,000 2,327 sq. ft. 41,818 sq. ft. $473
2017-10-24 Single Family Split Level 38 Amherst Greenwich, CT 06878 $985,000 2,677 sq. ft. 9,583 sq. ft. $368
2017-10-23 Single Family Colonial 55 Sound Beach Greenwich, CT 06870 $1,100,000 2,624 sq. ft. 6,098 sq. ft. $419
2017-10-19 Single Family Colonial; European 425 Taconic Greenwich, CT 06831 $4,800,000 13,199 sq. ft. 255,262 sq. ft. $364
2017-10-18 Single Family Contemporary 18 Chimney Corner Greenwich, CT 06830 $10,250,000 12,666 sq. ft. 77,972 sq. ft. $809
2017-10-16 Single Family Colonial; Victorian 477 Riversville Greenwich, CT 06831 $3,995,000 8,159 sq. ft. 246,114 sq. ft. $490
2017-10-16 Single Family Colonial 19 Peters Greenwich, CT 06878 $1,645,000 3,804 sq. ft. 26,572 sq. ft. $432
2017-10-11 Single Family Colonial 66 Tomac Greenwich, CT 06870 $2,295,000 3,150 sq. ft. 19,166 sq. ft. $729
2017-10-11 Single Family Mediterranean 1 Indian Chase Greenwich, CT 06830 $9,950,000 9,082 sq. ft. 78,844 sq. ft. $1,096
2017-10-10 Single Family Colonial 110 Patterson Greenwich, CT 06830 $2,595,000 4,170 sq. ft. 17,424 sq. ft. $622
2017-10-09 Single Family Raised Ranch 12 Point Greenwich, CT 06870 $2,988,000 1,882 sq. ft. 13,939 sq. ft. $1,588
2017-10-09 Single Family Colonial 45 Londonderry Greenwich, CT 06830 $4,250,000 8,000 sq. ft. 108,029 sq. ft. $531
2017-10-07 Single Family Cape Cod 15 Somerset Greenwich, CT 06878 $1,575,000 2,798 sq. ft. 13,504 sq. ft. $563
2017-10-07 Single Family Colonial 171 Cognewaugh Greenwich, CT 06807 $3,985,000 9,048 sq. ft. 93,654 sq. ft. $440
2017-10-06 Single Family Colonial 21 Old Club House Greenwich, CT 06870 $4,295,000 4,800 sq. ft. 19,602 sq. ft. $895
2017-10-06 Single Family Colonial 32 Cutler Greenwich, CT 06831 $2,995,000 7,888 sq. ft. 183,388 sq. ft. $380
2017-10-05 Single Family Colonial 29 Lincoln Greenwich, CT 06870 $1,875,000 2,440 sq. ft. 6,970 sq. ft. $768
2017-10-04 Single Family Ranch 25 Cary Greenwich, CT 06878 $550,000 1,240 sq. ft. 9,583 sq. ft. $444
2017-10-04 Single Family Colonial; Split Level 35 Welwyn Greenwich, CT 06878 $2,093,000 3,381 sq. ft. 19,602 sq. ft. $619
2017-10-04 Single Family Ranch 45 Doubling Greenwich, CT 06830 $1,649,000 2,435 sq. ft. 43,560 sq. ft. $677
2017-10-03 Single Family European 64 Butternut Hollow Greenwich, CT 06830 $1,750,000 4,523 sq. ft. 96,268 sq. ft. $387
2017-10-02 Single Family Georgian Colonial 85 Round Hill Greenwich, CT 06831 $6,495,000 8,962 sq. ft. 165,964 sq. ft. $725
2017-09-29 Single Family Colonial 17 Overlook Greenwich, CT 06830 $2,149,000 3,140 sq. ft. 17,424 sq. ft. $684
2017-09-29 Single Family Ranch; European 55 Zaccheus Mead Greenwich, CT 06831 $3,295,000 4,178 sq. ft. 177,725 sq. ft. $789
2017-09-29 Single Family Colonial 22 Woodside Greenwich, CT 06830 $2,375,000 3,518 sq. ft. 36,155 sq. ft. $675
2017-09-29 Single Family 53 Edgewater Greenwich, CT 06870 $1,250,000 1,803 sq. ft. 6,970 sq. ft. $693
2017-09-28 Single Family Colonial 21 Hoover Greenwich, CT 06878 $885,000 1,924 sq. ft. 5,227 sq. ft. $460
2017-09-28 Single Family Victorian 75 Byram Shore Greenwich, CT 06830 $18,800,000 6,859 sq. ft. 90,605 sq. ft. $2,741
2017-09-28 Single Family Colonial 802 Lake Greenwich, CT 06830 $1,350,000 4,246 sq. ft. 87,556 sq. ft. $318
2017-09-27 Single Family Split Level 55 Mary Greenwich, CT 06878 $835,000 1,614 sq. ft. 7,405 sq. ft. $517
2017-09-27 Single Family Barn; Farm House 112 Sheephill Greenwich, CT 06878 $1,399,000 3,040 sq. ft. 13,068 sq. ft. $460
2017-09-27 Single Family Colonial 57 Old Mill Greenwich, CT 06831 $3,149,500 8,427 sq. ft. 47,045 sq. ft. $374
2017-09-27 Single Family Colonial 53 Hillside Greenwich, CT 06830 $3,995,000 7,217 sq. ft. 67,518 sq. ft. $554
2017-09-27 Single Family Contemporary 122 Cedar Cliff Greenwich, CT 06878 $4,500,000 3,066 sq. ft. 55,321 sq. ft. $1,468
2017-09-24 Single Family Colonial 2 Dartmouth Greenwich, CT 06807 $2,550,000 4,879 sq. ft. 126,324 sq. ft. $523
2017-09-24 Single Family Georgian Colonial 272 Round Hill Road Greenwich, CT 06831 $9,950,000 15,156 sq. ft. 135,907 sq. ft. $657
2017-09-22 Single Family Colonial 293 Riversville Greenwich, CT 06831 $2,100,000 4,110 sq. ft. 109,336 sq. ft. $511
2017-09-20 Single Family Colonial 28 Boulder Brook Greenwich, CT 06830 $1,799,000 4,619 sq. ft. 51,401 sq. ft. $389
2017-09-19 Single Family Cape Cod 80 Sound Beach Greenwich, CT 06878 $1,199,000 3,354 sq. ft. 10,890 sq. ft. $357
2017-09-19 Single Family Colonial 54 Burning Tree Greenwich, CT 06830 $2,895,000 4,521 sq. ft. 111,078 sq. ft. $640
2017-09-19 Single Family Colonial 96 Maple Greenwich, CT 06830 $3,450,000 9,711 sq. ft. 26,136 sq. ft. $355
2017-09-15 Single Family Colonial 216 John Greenwich, CT 06831 $10,995,000 5,153 sq. ft. 1,873,080 sq. ft. $2,134
2017-09-14 Single Family Colonial 27 Pleasant Greenwich, CT 06807 $995,000 1,441 sq. ft. 6,098 sq. ft. $690
2017-09-13 Single Family Colonial 675 North Greenwich, CT 06830 $4,750,000 9,052 sq. ft. 174,240 sq. ft. $525
2017-09-12 Single Family Colonial 221 Taconic Greenwich, CT 06831 $3,590,000 8,442 sq. ft. 212,573 sq. ft. $425
2017-09-12 Single Family Colonial 323 Cognewaugh Greenwich, CT 06807 $2,995,000 6,400 sq. ft. 74,923 sq. ft. $468
2017-09-11 Single Family Normandy 523 North Greenwich, CT 06830 $3,195,000 8,570 sq. ft. 107,593 sq. ft. $373
2017-09-11 Single Family Contemporary; Ranch 10 Bailiwick Woods Greenwich, CT 06831 $1,595,000 2,689 sq. ft. 20,038 sq. ft. $593
2017-09-08 Single Family Cape Cod 41 Ettl Lane Greenwich, CT 06831 $799,000 2,246 sq. ft. 14,810 sq. ft. $356
2017-09-07 Single Family Colonial 186 Shore Greenwich, CT 06870 $5,995,000 8,803 sq. ft. 30,492 sq. ft. $681
2017-09-07 Single Family Colonial 23 Lancer Greenwich, CT 06878 $1,699,000 3,000 sq. ft. 12,197 sq. ft. $566
2017-09-07 Single Family Colonial 16 Chieftans Greenwich, CT 06831 $2,775,000 6,971 sq. ft. 40,075 sq. ft. $398
2017-09-07 Single Family Split Level 34 Cambridge Greenwich, CT 06831 $749,000 1,786 sq. ft. 9,583 sq. ft. $419
2017-09-07 Single Family Colonial 10 Club Greenwich, CT 06878 $4,995,000 7,749 sq. ft. 34,848 sq. ft. $645
2017-09-07 Single Family Colonial 23 Frontier Greenwich, CT 06807 $1,895,000 4,100 sq. ft. 45,738 sq. ft. $462
2017-09-07 Single Family Colonial 17 Winterset Greenwich, CT 06830 $2,199,000 5,115 sq. ft. 93,218 sq. ft. $430
2017-09-07 Single Family Colonial 36 Riversville Greenwich, CT 06831 $2,195,000 6,192 sq. ft. 46,609 sq. ft. $354
2017-09-07 Single Family Tudor 91 Brookside Greenwich, CT 06831 $2,799,000 6,084 sq. ft. 58,370 sq. ft. $460
2017-09-07 Single Family Colonial 34 Ettl Greenwich, CT 06831 $1,797,000 3,800 sq. ft. 9,583 sq. ft. $473
2017-08-30 Single Family Colonial 35 Close Greenwich, CT 06831 $12,000,000 16,516 sq. ft. 230,432 sq. ft. $727
2017-08-27 Single Family Mediterranean 52 Doubling Greenwich, CT 06830 $3,395,000 5,310 sq. ft. 104,980 sq. ft. $639
2017-08-25 Single Family Colonial 12 Indian Greenwich, CT 06870 $13,250,000 7,270 sq. ft. 30,492 sq. ft. $1,823
2017-08-23 Single Family Colonial 99 Elm Greenwich, CT 06830 $2,289,000 6,508 sq. ft. 9,583 sq. ft. $352
2017-08-21 Single Family Colonial 3 Tree Top Greenwich, CT 06831 $1,360,000 4,536 sq. ft. 21,344 sq. ft. $300
2017-08-21 Single Family Colonial 5 Crossway Greenwich, CT 06870 $5,400,000 4,000 sq. ft. 13,504 sq. ft. $1,350
2017-08-17 Single Family Colonial 11 Hedgerow Greenwich, CT 06831 $5,600,000 9,062 sq. ft. 98,881 sq. ft. $618
2017-08-17 Single Family Colonial 47 Glen Greenwich, CT 06830 $1,095,000 2,042 sq. ft. 10,019 sq. ft. $536
2017-08-17 Single Family Normandy 32 Chateau Ridge Greenwich, CT 06831 $25,000,000 16,301 sq. ft. 202,990 sq. ft. $1,534
2017-08-16 Single Family Colonial 12 Ballwood Greenwich, CT 06870 $3,985,000 5,500 sq. ft. 19,166 sq. ft. $725
2017-08-15 Single Family Colonial 70 Midwood Greenwich, CT 06830 $7,725,000 8,294 sq. ft. 101,059 sq. ft. $931
2017-08-12 Single Family Colonial 35 Boulder Brook Greenwich, CT 06830 $2,895,000 5,772 sq. ft. 46,609 sq. ft. $502
2017-08-11 Single Family Colonial 55 North Greenwich, CT 06830 $5,250,000 9,239 sq. ft. 50,530 sq. ft. $568
2017-08-10 Single Family Colonial 19 Deer Park Meadow Greenwich, CT 06830 $4,750,000 5,007 sq. ft. 75,359 sq. ft. $949
2017-08-09 Single Family Colonial 17 Cottontail Greenwich, CT 06807 $3,195,000 6,664 sq. ft. 77,972 sq. ft. $479
2017-08-09 Single Family Cape Cod; Colonial 30 Cognewaugh Greenwich, CT 06807 $1,875,000 4,308 sq. ft. 21,780 sq. ft. $435
2017-08-08 Single Family Contemporary 7 Old Camp Greenwich, CT 06807 $1,765,000 5,149 sq. ft. 94,961 sq. ft. $343
2017-08-08 Single Family 36 Rockwood Greenwich, CT 06830 $8,250,000 9,900 sq. ft. 87,120 sq. ft. $833
2017-08-05 Single Family Colonial 647 Lake Greenwich, CT 06830 $2,795,000 5,310 sq. ft. 91,476 sq. ft. $526
2017-08-05 Single Family Colonial 31 Evergreen Greenwich, CT 06830 $2,000,000 3,624 sq. ft. 36,155 sq. ft. $552
2017-08-05 Single Family Colonial 24 Tremont Greenwich, CT 06807 $859,000 1,938 sq. ft. 15,246 sq. ft. $443
2017-08-04 Single Family Victorian 76 Milbank Greenwich, CT 06830 $2,000,000 4,284 sq. ft. 8,276 sq. ft. $467
2017-08-04 Single Family Colonial 2 Sparrow Greenwich, CT 06830 $3,750,000 4,967 sq. ft. 44,867 sq. ft. $755
2017-08-04 Single Family Colonial 704 Lake Greenwich, CT 06830 $1,650,000 3,537 sq. ft. 87,556 sq. ft. $466
2017-08-04 Single Family Colonial 26 Nimitz Greenwich, CT 06870 $2,295,000 4,419 sq. ft. 20,473 sq. ft. $519
2017-08-04 Single Family Colonial 25 Copper Beech Greenwich, CT 06830 $2,249,000 4,085 sq. ft. 48,787 sq. ft. $551
2017-08-04 Single Family Contemporary 3 Lauder Greenwich, CT 06830 $6,750,000 8,296 sq. ft. 160,301 sq. ft. $814
2017-08-04 Single Family Colonial 10 Dandy Greenwich, CT 06807 $1,765,000 4,001 sq. ft. 14,810 sq. ft. $441
2017-08-04 Single Family Cape Cod 25 Shore Acre Greenwich, CT 06870 $2,150,000 2,143 sq. ft. 10,890 sq. ft. $1,003
2017-08-04 Single Family Colonial 7 Tinker Greenwich, CT 06830 $1,699,000 3,655 sq. ft. 120,226 sq. ft. $465
2017-08-04 Single Family Colonial 80 Cat Rock Greenwich, CT 06807 $3,990,000 9,539 sq. ft. 152,460 sq. ft. $418
2017-08-04 Single Family Colonial; Georgian Colonial 13 Aiken Greenwich, CT 06831 $6,150,000 11,566 sq. ft. 174,240 sq. ft. $532
2017-08-04 Single Family Tudor 34 Midwood Greenwich, CT 06830 $7,200,000 8,301 sq. ft. 108,900 sq. ft. $867
2017-08-04 Single Family Tudor 124 Porchuck Greenwich, CT 06831 $2,795,000 5,074 sq. ft. 184,694 sq. ft. $551
2017-08-04 Single Family Colonial; Georgian Colonial 2 Laurel Lane Greenwich, CT 06830 $3,295,000 5,616 sq. ft. 144,619 sq. ft. $587
2017-08-04 Single Family Colonial 23 Daffodil Greenwich, CT 06807 $2,690,000 6,168 sq. ft. 43,996 sq. ft. $436
2017-08-04 Single Family 172 Milbank Greenwich, CT 06830 $3,995,000 4,405 sq. ft. $907
2017-08-04 Single Family Victorian 328 Lake Greenwich, CT 06830 $2,750,000 4,477 sq. ft. 47,916 sq. ft. $614
2017-08-04 Single Family Contemporary 230 Round Hill Greenwich, CT 06831 $4,950,000 4,614 sq. ft. 113,692 sq. ft. $1,073
2017-08-04 Single Family Cape Cod 6 Glen Greenwich, CT 06830 $1,545,000 2,634 sq. ft. 7,841 sq. ft. $587
2017-08-04 Single Family Colonial; Georgian Colonial 97 Clapboard Ridge Greenwich, CT 06830 $12,700,000 11,255 sq. ft. 232,610 sq. ft. $1,128
2017-08-04 Single Family Colonial 851 Lake Greenwich, CT 06831 $3,995,000 8,018 sq. ft. 174,240 sq. ft. $498
2017-08-04 Single Family Colonial; Georgian Colonial 39 Day Greenwich, CT 06831 $2,975,000 9,719 sq. ft. 102,802 sq. ft. $306
2017-08-04 Single Family Colonial 24 Pell Greenwich, CT 06878 $3,895,000 7,477 sq. ft. 27,878 sq. ft. $521
2017-08-04 Single Family Colonial 9 Mavis Greenwich, CT 06830 $1,295,000 2,081 sq. ft. 90,605 sq. ft. $622
2017-08-04 Single Family Colonial; Split Level 50 Stonehedge Greenwich, CT 06831 $1,075,000 3,525 sq. ft. 47,045 sq. ft. $305
2017-08-04 Single Family Contemporary 444 Old Church Greenwich, CT 06830 $3,000,000 5,012 sq. ft. 44,867 sq. ft. $599
2017-08-04 Single Family Colonial 280 Round Hill Greenwich, CT 06831 $5,495,000 9,100 sq. ft. 109,336 sq. ft. $604
2017-08-04 Single Family Colonial 110 Shore Greenwich, CT 06870 $3,150,000 3,839 sq. ft. 13,504 sq. ft. $821
2017-08-04 Single Family Colonial 36 Meyer Greenwich, CT 06878 $2,495,000 5,414 sq. ft. 13,504 sq. ft. $461
2017-08-04 Single Family Contemporary 15 Steep Hollow Greenwich, CT 06807 $1,300,000 3,391 sq. ft. 87,120 sq. ft. $383
2017-08-04 Single Family Colonial; Contemporary 3 Old Mill Greenwich, CT 06830 $3,450,000 7,373 sq. ft. 89,734 sq. ft. $468
2017-08-04 Single Family Colonial 32 Pecksland Greenwich, CT 06831 $5,900,000 9,027 sq. ft. 166,399 sq. ft. $654
2017-08-04 Single Family Colonial; Georgian Colonial 4 Lauder Greenwich, CT 06830 $12,000,000 9,643 sq. ft. 134,165 sq. ft. $1,244
2017-08-04 Single Family Ranch 6 Meadow Greenwich, CT 06807 $2,990,000 4,397 sq. ft. 82,764 sq. ft. $680
2017-08-04 Single Family Mediterranean 11 Round Hill Club Greenwich, CT 06831 $13,750,000 9,691 sq. ft. 132,422 sq. ft. $1,419
2017-08-04 Single Family Colonial 347 Riversville Greenwich, CT 06831 $975,000 1,805 sq. ft. 34,848 sq. ft. $540
2017-08-04 Single Family Colonial 414 Stanwich Greenwich, CT 06830 $2,195,000 3,956 sq. ft. 93,654 sq. ft. $555
2017-08-04 Single Family Colonial; Georgian Colonial 282 Taconic Greenwich, CT 06831 $3,495,000 5,790 sq. ft. 185,566 sq. ft. $604
2017-08-04 Single Family Colonial 11 Valleywood Greenwich, CT 06807 $2,195,000 3,600 sq. ft. 8,276 sq. ft. $610
2017-08-04 Single Family Colonial 6 Sunset Greenwich, CT 06870 $2,450,000 3,100 sq. ft. 7,405 sq. ft. $790
2017-08-04 Single Family Mediterranean 300 Riversville Greenwich, CT 06831 $2,285,000 5,179 sq. ft. 143,748 sq. ft. $441
2017-08-04 Single Family Contemporary 353 Riversville Greenwich, CT 06831 $1,495,000 3,146 sq. ft. 57,935 sq. ft. $475
2017-08-04 Single Family Colonial 92 Old Stone Bridge Greenwich, CT 06807 $1,650,000 4,288 sq. ft. 43,996 sq. ft. $385
2017-08-04 Single Family Victorian 118 Glenwood Greenwich, CT 06830 $15,500,000 7,287 sq. ft. 47,480 sq. ft. $2,127
2017-08-04 Single Family Colonial 70 Bush Greenwich, CT 06830 $4,975,000 4,900 sq. ft. 23,958 sq. ft. $1,015
2017-08-04 Single Family Colonial 30 Owenoke Greenwich, CT 06878 $2,895,000 4,441 sq. ft. 17,860 sq. ft. $652
2017-08-04 Single Family Colonial 743 Lake Greenwich, CT 06830 $7,595,000 10,433 sq. ft. 114,563 sq. ft. $728
2017-08-04 Single Family Contemporary 15 Hycliff Greenwich, CT 06831 $2,250,000 5,212 sq. ft. 203,425 sq. ft. $432
2017-08-04 Single Family Colonial 61 Hunt Greenwich, CT 06831 $1,270,000 3,744 sq. ft. 31,363 sq. ft. $339
2017-08-04 Single Family Colonial 50 Hillcrest Park Greenwich, CT 06807 $2,499,000 6,062 sq. ft. 57,064 sq. ft. $412
2017-08-04 Single Family Colonial 52 Lockwood Greenwich, CT 06870 $3,995,000 5,151 sq. ft. 14,810 sq. ft. $776
2017-08-04 Single Family Farm House 7 Carriage Greenwich, CT 06807 $2,895,000 5,000 sq. ft. 43,996 sq. ft. $579
2017-08-04 Single Family Colonial 26 Forest Greenwich, CT 06870 $3,050,000 5,500 sq. ft. 19,166 sq. ft. $555
2017-08-04 Single Family Colonial 10 West Crossway Greenwich, CT 06870 $5,485,000 5,292 sq. ft. 19,166 sq. ft. $1,036
2017-08-04 Single Family Colonial 15 Indian Head Greenwich, CT 06878 $3,850,000 6,100 sq. ft. 18,295 sq. ft. $631
2017-08-04 Single Family Ranch; Split Level 340 Cognewaugh Greenwich, CT 06807 $759,000 2,075 sq. ft. 43,996 sq. ft. $366
2017-08-04 Single Family Colonial 74 Willowmere Greenwich, CT 06878 $2,695,000 5,337 sq. ft. 23,087 sq. ft. $505
2017-08-04 Single Family Colonial 13 Meadow Wood Greenwich, CT 06830 $2,650,000 3,465 sq. ft. 63,162 sq. ft. $765
2017-08-04 Single Family Colonial 38 Aiken Greenwich, CT 06831 $4,800,000 6,755 sq. ft. 193,406 sq. ft. $711
2017-08-04 Single Family Contemporary 280 Riversville Greenwich, CT 06831 $1,995,000 5,158 sq. ft. 158,123 sq. ft. $387
2017-08-04 Single Family Colonial 82 Cat Rock Greenwich, CT 06807 $3,300,000 9,578 sq. ft. 88,427 sq. ft. $345
2017-08-04 Single Family Colonial 85 Indian Head Greenwich, CT 06878 $6,750,000 6,958 sq. ft. 73,181 sq. ft. $970
2017-08-04 Single Family Colonial 432 Field Point Greenwich, CT 06830 $5,199,000 9,336 sq. ft. 58,370 sq. ft. $557
2017-08-04 Single Family Georgian Colonial 38 Dairy Greenwich, CT 06830 $5,495,000 10,053 sq. ft. 92,783 sq. ft. $547
2017-08-04 Single Family Colonial 646 Riversville Greenwich, CT 06831 $2,495,000 4,764 sq. ft. 217,800 sq. ft. $524
2017-08-04 Single Family Contemporary 20 Mohawk Greenwich, CT 06831 $1,995,000 4,830 sq. ft. 186,001 sq. ft. $413
2017-08-04 Single Family Colonial; Georgian Colonial 3 Old Round Hill Greenwich, CT 06831 $6,999,000 9,863 sq. ft. 88,427 sq. ft. $710
2017-08-04 Single Family Colonial 31 Scott Greenwich, CT 06831 $1,225,000 4,900 sq. ft. 21,344 sq. ft. $250
2017-08-04 Single Family Colonial 26 Woods Greenwich, CT 06831 $1,099,000 2,285 sq. ft. 9,148 sq. ft. $481
2017-08-04 Single Family Colonial 1 Minerva Greenwich, CT 06870 $2,995,000 5,344 sq. ft. 16,553 sq. ft. $560
2017-08-04 Single Family Colonial 8 Dearfield Greenwich, CT 06831 $2,500,000 4,922 sq. ft. 26,136 sq. ft. $508
2017-08-04 Single Family Colonial 128 Porchuck Greenwich, CT 06831 $3,999,000 10,138 sq. ft. 190,793 sq. ft. $394
2017-08-04 Single Family Colonial 14 Sherwood Farm Greenwich, CT 06831 $3,295,000 5,062 sq. ft. 57,064 sq. ft. $651
2017-07-27 Single Family Colonial; Tudor 125 Pecksland Road Greenwich, CT 06831 $10,500,000 14,532 sq. ft. 174,240 sq. ft. $723
2017-07-27 Single Family Split Level 41 Old Kings Highway Greenwich, CT 06870 $819,999 1,688 sq. ft. 7,841 sq. ft. $486
2017-07-25 Single Family Tudor 91 Brookside Drive Greenwich, CT 06831 $2,850,000 6,084 sq. ft. 58,370 sq. ft. $468
2017-07-24 Single Family Colonial 31 Richmond Drive Greenwich, CT 06870 $1,795,000 2,900 sq. ft. 10,454 sq. ft. $619
2017-07-21 Single Family Colonial 199 Valley Road Greenwich, CT 06807 $1,890,000 2,865 sq. ft. 10,019 sq. ft. $660
2017-07-19 Single Family Colonial 17 Old Wagon Road Greenwich, CT 06870 $2,199,000 3,241 sq. ft. 12,197 sq. ft. $678
2017-07-18 Single Family Colonial 34 Ettl Lane Greenwich, CT 06831 $1,797,000 3,800 sq. ft. 9,583 sq. ft. $473
2017-07-13 Single Family Colonial 16 Pleasant View Place Greenwich, CT 06870 $1,575,000 3,284 sq. ft. 23,522 sq. ft. $480
2017-07-10 Single Family Colonial 35 Close Road Greenwich, CT 06831 $12,000,000 12,516 sq. ft. 230,432 sq. ft. $959
2017-07-09 Single Family Ranch 15 Greenway Drive Greenwich, CT 06831 $999,000 2,825 sq. ft. 14,810 sq. ft. $354
2017-07-07 Single Family Mediterranean 52 Doubling Road Greenwich, CT 06830 $3,395,000 5,310 sq. ft. 104,980 sq. ft. $639
2017-07-06 Single Family Colonial 12 Indian Drive Greenwich, CT 06870 $13,250,000 7,270 sq. ft. 30,492 sq. ft. $1,823
2017-07-06 Single Family Colonial; Split Level 23 Midbrook Lane Greenwich, CT 06870 $1,239,000 2,103 sq. ft. 16,117 sq. ft. $589
2017-07-06 Single Family Cape 9 Nimitz Place Greenwich, CT 06870 $1,198,000 2,260 sq. ft. 10,019 sq. ft. $530
2017-07-05 Single Family Colonial 1 Ridge Road Greenwich, CT 06807 $1,140,000 1,960 sq. ft. 7,405 sq. ft. $582
2017-07-05 Single Family Colonial 35 Sunshine Avenue Greenwich, CT 06878 $1,595,000 2,542 sq. ft. 10,019 sq. ft. $627
2017-06-30 Single Family Colonial 979 Lake Avenue Greenwich, CT 06831 $1,995,000 2,685 sq. ft. 174,240 sq. ft. $743
2017-06-30 Single Family Colonial 5 Crossway Drive Greenwich, CT 06870 $5,400,000 4,000 sq. ft. 13,504 sq. ft. $1,350
2017-06-30 Single Family Colonial 107 Elm Street Greenwich, CT 06830 $1,250,000 1,373 sq. ft. 3,920 sq. ft. $910
2017-06-30 Single Family Contemporary 5 Sylvan Lane Greenwich, CT 06870 $6,395,000 9,558 sq. ft. 20,038 sq. ft. $669
2017-06-29 Single Family Cape 29 Barton Lane Greenwich, CT 06807 $1,465,000 2,095 sq. ft. 43,560 sq. ft. $699
2017-06-28 Single Family Split Level 40 Cassidy Street Greenwich, CT 06830 $895,000 1,660 sq. ft. 11,326 sq. ft. $539
2017-06-27 Single Family Colonial 111 Stanwich Road Greenwich, CT 06830 $1,995,000 3,617 sq. ft. 22,216 sq. ft. $552
2017-06-27 Single Family Mediterranean 32 Chateau Ridge Road Greenwich, CT 06831 $25,000,000 16,301 sq. ft. 202,990 sq. ft. $1,534
2017-06-27 Single Family Colonial 47 Glen Road Greenwich, CT 06830 $1,175,000 2,042 sq. ft. 10,019 sq. ft. $575
2017-06-26 Single Family Colonial 12 Ballwood Road Greenwich, CT 06870 $4,250,000 5,500 sq. ft. 19,166 sq. ft. $773
2017-06-26 Single Family Colonial 19 Saint Claire Avenue Greenwich, CT 06870 $1,995,000 2,345 sq. ft. 12,197 sq. ft. $851
2017-06-26 Single Family Colonial 70 Cedar Cliff Road Greenwich, CT 06878 $3,750,000 4,229 sq. ft. 30,056 sq. ft. $887
2017-06-25 Single Family Ranch 6 Hines Lane Greenwich, CT 06878 $775,000 1,119 sq. ft. 10,890 sq. ft. $693
2017-06-23 Single Family Colonial 70 Midwood Road Greenwich, CT 06830 $7,975,000 8,294 sq. ft. 101,059 sq. ft. $962
2017-06-22 Single Family Split Level 91 Stonehedge Drive Greenwich, CT 06831 $1,179,000 2,137 sq. ft. 63,162 sq. ft. $552
2017-06-22 Single Family Colonial 55 North Street Greenwich, CT 06807 $5,750,000 9,239 sq. ft. 50,530 sq. ft. $622
2017-06-21 Single Family Colonial 35 Boulder Brook Road Greenwich, CT 06830 $2,995,000 4,225 sq. ft. 46,609 sq. ft. $709
2017-06-21 Single Family Colonial 44 Glen Avon Drive Greenwich, CT 06878 $4,895,000 6,141 sq. ft. 31,799 sq. ft. $797
2017-06-21 Single Family Colonial 19 Deer Park Meadow Road Greenwich, CT 06830 $4,750,000 5,007 sq. ft. 75,359 sq. ft. $949
2017-06-19 Single Family Colonial 176 Weaver Street Greenwich, CT 06831 $799,000 1,260 sq. ft. 42,689 sq. ft. $634
2017-06-19 Single Family Colonial 110 Mead Avenue Greenwich, CT 06830 $550,000 1,076 sq. ft. 4,356 sq. ft. $511
2017-06-16 Single Family Colonial 33 Perryridge Road Greenwich, CT 06830 $1,495,000 1,629 sq. ft. 6,970 sq. ft. $918
2017-06-15 Single Family Colonial 24 Tremont Street Greenwich, CT 06807 $950,000 1,938 sq. ft. 15,246 sq. ft. $490
2017-06-15 Single Family Ranch 26 Widgeon Way Greenwich, CT 06830 $1,499,000 1,628 sq. ft. 14,375 sq. ft. $921
2017-06-15 Single Family Colonial 31 Evergreen Road Greenwich, CT 06830 $2,200,000 3,624 sq. ft. 36,155 sq. ft. $607
2017-06-15 Single Family Colonial 247 Byram Road Greenwich, CT 06830 $649,000 1,538 sq. ft. 5,227 sq. ft. $422
2017-06-15 Single Family Colonial 647 Lake Avenue Greenwich, CT 06830 $2,995,000 5,310 sq. ft. 91,476 sq. ft. $564
2017-06-14 Single Family Colonial 704 Lake Avenue Greenwich, CT 06830 $1,995,000 3,537 sq. ft. 87,556 sq. ft. $564
2017-06-14 Single Family Cape 31 Meadow Wood Drive Greenwich, CT 06830 $3,775,000 1,663 sq. ft. 52,708 sq. ft. $2,270
2017-06-13 Single Family Colonial 10 Taconic Road Greenwich, CT 06830 $5,395,000 9,578 sq. ft. 87,120 sq. ft. $563
2017-06-13 Single Family Colonial 31 Horseshoe Road Greenwich, CT 06807 $1,799,000 3,898 sq. ft. 47,480 sq. ft. $462
2017-06-13 Single Family Colonial 2 Sparrow Lane Greenwich, CT 06830 $3,995,000 4,967 sq. ft. 44,867 sq. ft. $804
2017-06-13 Single Family Colonial 316 Valley Road Greenwich, CT 06807 $1,249,000 2,814 sq. ft. 9,583 sq. ft. $444
2017-06-12 Single Family Colonial 16 Laddins Rock Road Greenwich, CT 06870 $2,249,000 3,998 sq. ft. 16,117 sq. ft. $563
2017-06-12 Single Family Colonial 79 Meadow Wood Drive Greenwich, CT 06830 $11,900,000 10,162 sq. ft. 51,836 sq. ft. $1,171
2017-06-12 Single Family Colonial 361 Field Point Road Greenwich, CT 06830 $2,975,000 4,757 sq. ft. 21,780 sq. ft. $625
2017-06-10 Single Family Colonial 8 Perryridge Road Greenwich, CT 06830 $2,295,000 2,400 sq. ft. 7,841 sq. ft. $956
2017-06-09 Single Family Colonial 40 Park Avenue Greenwich, CT 06870 $2,495,000 3,062 sq. ft. 10,019 sq. ft. $815
2017-06-08 Single Family Townhouse 7 River Road Greenwich, CT 06807 $649,000 1,180 sq. ft. $550
2017-06-08 Single Family Colonial 26 Nimitz Place Greenwich, CT 06870 $2,325,000 4,419 sq. ft. 20,473 sq. ft. $526
2017-06-08 Single Family Colonial; Ranch 29 Long Meadow Road Greenwich, CT 06878 $1,120,000 1,880 sq. ft. 12,197 sq. ft. $596
2017-06-08 Single Family Colonial 1 Ledge Road Greenwich, CT 06870 $4,695,000 5,773 sq. ft. 20,038 sq. ft. $813
2017-06-07 Single Family Colonial 20 Carriglea Drive Greenwich, CT 06878 $6,995,000 6,527 sq. ft. 43,560 sq. ft. $1,072
2017-06-06 Single Family Cape 45 Halsey Drive Greenwich, CT 06870 $1,175,000 2,243 sq. ft. 7,841 sq. ft. $524
2017-06-05 Single Family Contemporary 3 Lauder Way Greenwich, CT 06830 $6,750,000 8,296 sq. ft. 160,301 sq. ft. $814
2017-06-05 Single Family Tudor 124 Porchuck Road Greenwich, CT 06831 $2,995,000 5,074 sq. ft. 184,694 sq. ft. $590
2017-06-05 Single Family Tudor 34 Midwood Road Greenwich, CT 06830 $7,850,000 8,301 sq. ft. 108,900 sq. ft. $946
2017-06-05 Single Family Colonial; Georgian 13 Aiken Road Greenwich, CT 06831 $6,150,000 11,566 sq. ft. 174,240 sq. ft. $532
2017-06-04 Single Family Colonial 68 Halsey Drive Greenwich, CT 06870 $2,995,000 9,500 sq. ft. 67,082 sq. ft. $315
2017-06-04 Single Family Colonial 80 Cat Rock Road Greenwich, CT 06807 $3,980,810 9,545 sq. ft. 116,305 sq. ft. $417
2017-06-02 Single Family Colonial 184 Parsonage Road Greenwich, CT 06830 $3,750,000 5,018 sq. ft. 54,450 sq. ft. $747
2017-06-02 Single Family Colonial 21 Knollwood Drive Greenwich, CT 06830 $3,495,000 5,000 sq. ft. 103,673 sq. ft. $699
2017-06-02 Single Family Colonial 25 Copper Beech Road Greenwich, CT 06830 $2,299,000 4,085 sq. ft. 48,787 sq. ft. $563
2017-06-01 Single Family Colonial 7 Tinker Lane Greenwich, CT 06830 $1,799,000 3,655 sq. ft. 120,226 sq. ft. $492
2017-06-01 Single Family Cape 25 Shore Acre Drive Greenwich, CT 06870 $2,150,000 2,143 sq. ft. 10,890 sq. ft. $1,003
2017-06-01 Single Family Colonial 33 Ferncliff Road Greenwich, CT 06807 $1,999,000 3,924 sq. ft. 145,926 sq. ft. $509
2017-06-01 Single Family Bungalow 32 Pemberwick Road Greenwich, CT 06831 $534,000 1,504 sq. ft. 4,792 sq. ft. $355
2017-05-31 Single Family Colonial 16 Manor Road Greenwich, CT 06870 $1,795,000 2,676 sq. ft. 10,454 sq. ft. $671
2017-05-31 Single Family Colonial 10 Dandy Drive Greenwich, CT 06807 $1,765,000 4,001 sq. ft. 14,810 sq. ft. $441
2017-05-30 Single Family Colonial 15 Old Orchard Road Greenwich, CT 06878 $2,295,000 3,928 sq. ft. 12,197 sq. ft. $584
2017-05-30 Single Family Ranch 35 Duncan Drive Greenwich, CT 06831 $1,995,000 5,000 sq. ft. 55,321 sq. ft. $399
2017-05-26 Single Family Tudor 27 Alden Road Greenwich, CT 06831 $2,899,000 3,557 sq. ft. 38,333 sq. ft. $815
2017-05-25 Single Family Colonial 19 Porchuck Road Greenwich, CT 06831 $5,675,000 10,500 sq. ft. 130,244 sq. ft. $540
2017-05-25 Single Family Colonial 76 Circle Drive Greenwich, CT 06830 $1,449,000 3,540 sq. ft. 12,197 sq. ft. $409
2017-05-25 Single Family Colonial; Farm House 189 Old Mill Road Greenwich, CT 06831 $1,349,000 1,872 sq. ft. 27,443 sq. ft. $721
2017-05-24 Single Family Colonial; Georgian 2 Laurel Lane Spur Greenwich, CT 06830 $3,695,000 5,616 sq. ft. 144,619 sq. ft. $658
2017-05-24 Single Family Colonial 45 Hillside Drive Greenwich, CT 06830 $3,975,000 5,188 sq. ft. 31,363 sq. ft. $766
2017-05-24 Single Family Colonial 9 Thornhill Road Greenwich, CT 06878 $1,150,000 2,780 sq. ft. 10,019 sq. ft. $414
2017-05-23 Single Family Colonial; Antique 15 Concord Street Greenwich, CT 06831 $749,900 1,866 sq. ft. 5,227 sq. ft. $402
2017-05-23 Single Family Cape 45 Francis Lane Greenwich, CT 06831 $699,000 1,711 sq. ft. 3,920 sq. ft. $409
2017-05-22 Single Family Colonial 10 Lakeview Drive Greenwich, CT 06878 $3,095,000 4,600 sq. ft. 12,197 sq. ft. $673
2017-05-21 Single Family Colonial 34 Connecticut Avenue Greenwich, CT 06830 $1,095,000 1,852 sq. ft. 4,356 sq. ft. $591
2017-05-20 Single Family Cape; Contemporary 35 Scott Road Greenwich, CT 06831 $825,000 2,201 sq. ft. 33,106 sq. ft. $375
2017-05-19 Single Family Contemporary 89 Cognewaugh Road Greenwich, CT 06807 $1,495,000 3,400 sq. ft. 31,799 sq. ft. $440
2017-05-19 Single Family Colonial 17 Windabout Drive Greenwich, CT 06831 $2,695,000 5,233 sq. ft. 121,968 sq. ft. $515
2017-05-19 Single Family Colonial 22 Buckfield Lane Greenwich, CT 06831 $5,100,000 6,197 sq. ft. 309,712 sq. ft. $823
2017-05-19 Single Family Colonial 538 Round Hill Road Greenwich, CT 06831 $5,795,000 6,205 sq. ft. 216,929 sq. ft. $934
2017-05-19 Single Family Contemporary 230 Round Hill Road Greenwich, CT 06831 $5,450,000 4,614 sq. ft. 113,692 sq. ft. $1,181
2017-05-19 Single Family Colonial; Georgian 1 Doverton Drive Greenwich, CT 06831 $7,995,000 10,767 sq. ft. 88,427 sq. ft. $743
2017-05-19 Single Family Colonial 50 Old Orchard Road Greenwich, CT 06878 $1,450,000 2,657 sq. ft. 12,197 sq. ft. $546
2017-05-18 Single Family Tudor 15 Reynwood Manor Greenwich, CT 06831 $8,900,000 9,712 sq. ft. 411,206 sq. ft. $916
2017-05-17 Single Family Ranch 15 Widgeon Way Greenwich, CT 06830 $1,875,000 3,354 sq. ft. 14,810 sq. ft. $559
2017-05-17 Single Family Victorian 328 Lake Avenue Greenwich, CT 06830 $2,995,000 4,477 sq. ft. 47,916 sq. ft. $669
2017-05-17 Single Family Colonial 23 Daffodil Lane Greenwich, CT 06807 $2,690,000 5,244 sq. ft. 43,996 sq. ft. $513
2017-05-17 Single Family Colonial 23 Carrington Drive Greenwich, CT 06831 $4,455,000 8,883 sq. ft. 223,463 sq. ft. $502
2017-05-16 Single Family Colonial 41 Leonard Avenue Greenwich, CT 06878 $1,350,000 2,478 sq. ft. 11,761 sq. ft. $545
2017-05-16 Single Family Colonial 521 Field Point Road Greenwich, CT 06830 $5,850,000 4,948 sq. ft. 30,928 sq. ft. $1,182
2017-05-16 Single Family Colonial 35 Edgewood Avenue Greenwich, CT 06830 $895,000 1,429 sq. ft. 9,583 sq. ft. $626
2017-05-15 Single Family Colonial 11 Crescent Road Greenwich, CT 06878 $2,295,000 3,197 sq. ft. 21,344 sq. ft. $718
2017-05-13 Single Family Colonial 112 Pemberwick Road Greenwich, CT 06831 $699,000 1,550 sq. ft. 5,227 sq. ft. $451
2017-05-12 Single Family Townhouse 172 Milbank Avenue Greenwich, CT 06830 $3,995,000 4,405 sq. ft. $907
2017-05-11 Single Family Cape 6 Glen Road Greenwich, CT 06830 $1,625,000 2,127 sq. ft. 7,841 sq. ft. $764
2017-05-11 Single Family Colonial 28 Hollow Wood Lane Greenwich, CT 06831 $930,000 1,200 sq. ft. 10,019 sq. ft. $775
2017-05-10 Single Family Victorian 96 Club Road Greenwich, CT 06878 $7,500,000 5,682 sq. ft. 53,143 sq. ft. $1,320
2017-05-10 Single Family Colonial 19 Field Road Greenwich, CT 06807 $1,265,000 2,410 sq. ft. 7,841 sq. ft. $525
2017-05-10 Single Family Cape 86 Round Hill Road Greenwich, CT 06831 $2,790,000 3,029 sq. ft. 105,851 sq. ft. $921
2017-05-09 Single Family Contemporary 444 Old Church Road Greenwich, CT 06830 $3,000,000 5,012 sq. ft. 44,867 sq. ft. $599
2017-05-09 Single Family Colonial 9 Mavis Lane Greenwich, CT 06830 $1,350,000 2,081 sq. ft. 90,605 sq. ft. $649
2017-05-09 Single Family Colonial; Split Level 50 Stonehedge Drive Greenwich, CT 06831 $1,135,000 3,525 sq. ft. 47,045 sq. ft. $322
2017-05-08 Single Family Colonial 30 Perryridge Road Greenwich, CT 06830 $1,900,000 1,942 sq. ft. 7,841 sq. ft. $978
2017-05-08 Single Family Colonial 24 Pell Place Greenwich, CT 06878 $4,540,000 4,914 sq. ft. 27,878 sq. ft. $924
2017-05-08 Single Family Colonial; Georgian 38 Locust Road Greenwich, CT 06831 $5,495,000 5,926 sq. ft. 174,240 sq. ft. $927
2017-05-05 Single Family Colonial; Georgian 39 Day Road Greenwich, CT 06831 $3,295,000 9,719 sq. ft. 102,802 sq. ft. $339
2017-05-05 Single Family Colonial 851 Lake Avenue Greenwich, CT 06831 $4,195,000 8,018 sq. ft. 174,240 sq. ft. $523
2017-05-05 Single Family Victorian 81 Brookside Drive Greenwich, CT 06831 $1,695,000 3,276 sq. ft. 16,553 sq. ft. $517
2017-05-05 Single Family Colonial 97 Elm Street Greenwich, CT 06830 $2,395,000 2,919 sq. ft. 10,019 sq. ft. $820
2017-05-03 Single Family Colonial 45 Circle Drive Greenwich, CT 06830 $1,775,000 4,008 sq. ft. 19,602 sq. ft. $443
2017-05-03 Single Family Colonial 36 Meyer Place Greenwich, CT 06878 $2,495,000 4,014 sq. ft. 13,504 sq. ft. $622
2017-05-03 Single Family Colonial 92 Old Stone Bridge Road Greenwich, CT 06807 $1,695,000 4,288 sq. ft. 43,996 sq. ft. $395
2017-05-02 Single Family Colonial; Georgian 97 Clapboard Ridge Road Greenwich, CT 06830 $12,700,000 11,255 sq. ft. 232,610 sq. ft. $1,128
2017-05-02 Single Family Colonial 18 Flower Lane Greenwich, CT 06831 $3,999,000 6,982 sq. ft. 76,230 sq. ft. $573
2017-05-01 Single Family Contemporary 15 Steep Hollow Lane Greenwich, CT 06807 $1,500,000 3,391 sq. ft. 87,120 sq. ft. $442
2017-05-01 Single Family Colonial 29 Pecksland Road Greenwich, CT 06831 $3,795,000 7,036 sq. ft. 87,556 sq. ft. $539
2017-05-01 Single Family Victorian 118 Glenwood Drive Greenwich, CT 06830 $16,975,000 7,287 sq. ft. 47,480 sq. ft. $2,329
2017-04-28 Single Family Colonial 26 Carleton Street Greenwich, CT 06830 $1,849,000 3,420 sq. ft. 16,988 sq. ft. $541
2017-04-27 Single Family Colonial 110 Shore Road Greenwich, CT 06870 $3,300,000 3,839 sq. ft. 13,504 sq. ft. $860
2017-04-27 Single Family Colonial 310 Round Hill Road Greenwich, CT 06831 $3,995,000 6,135 sq. ft. 131,116 sq. ft. $651
2017-04-26 Single Family Colonial; Ranch 49 Sumner Road Greenwich, CT 06831 $1,849,000 4,542 sq. ft. 174,240 sq. ft. $407
2017-04-25 Single Family Cape 6 Saint Claire Avenue Greenwich, CT 06870 $1,685,000 2,400 sq. ft. 11,761 sq. ft. $702
2017-04-25 Single Family Colonial 2 Hunting Ridge Road Greenwich, CT 06831 $990,000 4,743 sq. ft. 202,990 sq. ft. $209
2017-04-24 Single Family Colonial 54 Mallard Drive Greenwich, CT 06830 $3,695,000 5,596 sq. ft. 19,166 sq. ft. $660
2017-04-24 Single Family Colonial 280 Round Hill Road Greenwich, CT 06831 $5,800,000 9,100 sq. ft. 109,336 sq. ft. $637
2017-04-21 Single Family Colonial 317 Overlook Drive Greenwich, CT 06830 $2,099,000 3,407 sq. ft. 14,810 sq. ft. $616
2017-04-21 Single Family Colonial 649 River Road Greenwich, CT 06807 $3,590,000 6,700 sq. ft. 69,696 sq. ft. $536
2017-04-21 Single Family Mediterranean 11 Round Hill Club Road Greenwich, CT 06831 $15,950,000 9,691 sq. ft. 132,422 sq. ft. $1,646
2017-04-21 Single Family Colonial 6 Sunset Road Greenwich, CT 06870 $2,550,000 3,100 sq. ft. 7,405 sq. ft. $823
2017-04-21 Single Family Colonial 198 Shore Road Greenwich, CT 06870 $4,750,000 3,477 sq. ft. 27,878 sq. ft. $1,366
2017-04-21 Single Family Ranch 49 Grey Rock Drive Greenwich, CT 06831 $875,000 1,540 sq. ft. 15,246 sq. ft. $568
2017-04-20 Single Family Colonial 56 Londonderry Drive Greenwich, CT 06830 $1,675,000 3,623 sq. ft. 88,862 sq. ft. $462
2017-04-20 Single Family Colonial 65 Hunting Ridge Road Greenwich, CT 06831 $6,950,000 11,000 sq. ft. 269,201 sq. ft. $632
2017-04-18 Single Family Farm House 7 Ricky Beth Lane Greenwich, CT 06870 $2,500,000 5,459 sq. ft. 47,916 sq. ft. $458
2017-04-18 Single Family Ranch 6 Meadow Drive Greenwich, CT 06807 $3,400,000 4,397 sq. ft. 82,764 sq. ft. $773
2017-04-18 Single Family Colonial 30 Hemlock Drive Greenwich, CT 06831 $2,475,000 3,738 sq. ft. 43,560 sq. ft. $662
2017-04-18 Single Family Contemporary 45 Lismore Lane Greenwich, CT 06831 $2,750,000 3,165 sq. ft. 110,642 sq. ft. $869
2017-04-18 Single Family Colonial; Georgian 4 Lauder Way Greenwich, CT 06830 $12,000,000 9,643 sq. ft. 134,165 sq. ft. $1,244
2017-04-17 Single Family Colonial 28 Boulder Brook Road Greenwich, CT 06830 $1,999,000 4,619 sq. ft. 51,401 sq. ft. $433
2017-04-17 Single Family Colonial 32 Pecksland Road Greenwich, CT 06831 $7,200,000 9,027 sq. ft. 166,399 sq. ft. $798
2017-04-17 Single Family Mediterranean 300 Riversville Road Greenwich, CT 06831 $2,285,000 4,779 sq. ft. 143,748 sq. ft. $478
2017-04-15 Single Family Colonial 218 Clapboard Ridge Road Greenwich, CT 06831 $10,900,000 12,386 sq. ft. 222,156 sq. ft. $880
2017-04-15 Single Family Colonial; Contemporary 3 Old Mill Road Greenwich, CT 06830 $3,450,000 7,373 sq. ft. 89,734 sq. ft. $468
2017-04-12 Single Family Colonial 11 Valleywood Road Greenwich, CT 06807 $2,150,000 3,924 sq. ft. 8,276 sq. ft. $548
2017-04-11 Single Family Colonial 60 Butternut Hollow Road Greenwich, CT 06830 $3,195,000 3,740 sq. ft. 90,605 sq. ft. $854
2017-04-10 Single Family Colonial; Georgian 282 Taconic Road Greenwich, CT 06831 $3,495,000 5,790 sq. ft. 185,566 sq. ft. $604
2017-04-10 Single Family Colonial 625 North Street Greenwich, CT 06830 $4,495,000 5,223 sq. ft. 94,961 sq. ft. $861
2017-04-07 Single Family Tudor 30 Willowmere Avenue Greenwich, CT 06878 $2,600,000 5,053 sq. ft. 30,056 sq. ft. $515
2017-04-07 Single Family Contemporary 12 Sidney Lanier Lane Greenwich, CT 06831 $1,995,000 5,203 sq. ft. 91,476 sq. ft. $383
2017-04-07 Single Family Colonial 1 Finney Knoll Lane Greenwich, CT 06878 $1,795,000 2,972 sq. ft. 8,276 sq. ft. $604
2017-04-06 Single Family Colonial 414 Stanwich Road Greenwich, CT 06830 $2,395,000 3,956 sq. ft. 93,654 sq. ft. $605
2017-04-05 Single Family Colonial 12 Nimitz Place Greenwich, CT 06870 $2,290,000 3,600 sq. ft. 10,019 sq. ft. $636
2017-04-05 Single Family Colonial 526 North Street Greenwich, CT 06830 $3,895,000 7,026 sq. ft. 114,998 sq. ft. $554
2017-04-05 Single Family Colonial 33 Meadow Wood Drive Greenwich, CT 06830 $9,875,000 5,040 sq. ft. 121,097 sq. ft. $1,959
2017-04-04 Single Family Colonial 347 Riversville Road Greenwich, CT 06831 $1,249,000 1,805 sq. ft. 34,848 sq. ft. $692
2017-04-04 Single Family Contemporary 353 Riversville Road Greenwich, CT 06831 $1,495,000 3,146 sq. ft. 57,935 sq. ft. $475
2017-04-03 Single Family Colonial 245 Byram Road Greenwich, CT 06830 $529,500 1,372 sq. ft. 5,227 sq. ft. $386
2017-04-03 Single Family Colonial 70 Sumner Road Greenwich, CT 06831 $3,850,000 9,340 sq. ft. 174,240 sq. ft. $412
2017-04-03 Single Family Colonial 21 Cary Road Greenwich, CT 06878 $975,000 1,710 sq. ft. 9,148 sq. ft. $570
2017-04-01 Single Family Colonial 610 Lake Avenue Greenwich, CT 06830 $5,495,000 8,249 sq. ft. 120,661 sq. ft. $666
2017-04-01 Single Family Contemporary 8 Dublin Hill Road Greenwich, CT 06830 $3,200,000 4,136 sq. ft. 133,294 sq. ft. $774
2017-03-31 Single Family Colonial 45 Upland Drive Greenwich, CT 06831 $3,600,000 11,885 sq. ft. 66,211 sq. ft. $303
2017-03-28 Single Family Colonial 111 Overlook Drive Greenwich, CT 06830 $2,575,000 3,656 sq. ft. 16,988 sq. ft. $704
2017-03-28 Single Family Colonial 31 Porchuck Road Greenwich, CT 06831 $7,900,000 10,143 sq. ft. 173,804 sq. ft. $779
2017-03-27 Single Family Victorian 252 Milbank Avenue Greenwich, CT 06830 $4,995,000 6,869 sq. ft. 10,890 sq. ft. $727
2017-03-24 Single Family Colonial 6 Eggleston Lane Greenwich, CT 06870 $3,995,000 2,380 sq. ft. 23,087 sq. ft. $1,679
2017-03-22 Single Family Colonial 16 River Lane Greenwich, CT 06807 $1,349,000 2,396 sq. ft. 11,326 sq. ft. $563
2017-03-21 Single Family Colonial 28 Heusted Drive Greenwich, CT 06870 $3,000,000 4,500 sq. ft. 9,583 sq. ft. $667
2017-03-20 Single Family Colonial 15 Oakwood Lane Greenwich, CT 06830 $4,995,000 7,358 sq. ft. 44,867 sq. ft. $679
2017-03-20 Single Family Colonial 570 Lake Avenue Greenwich, CT 06830 $2,695,000 4,656 sq. ft. 120,661 sq. ft. $579
2017-03-20 Single Family Cape 26 Indian Field Road Greenwich, CT 06830 $849,900 1,968 sq. ft. 13,068 sq. ft. $432
2017-03-20 Single Family Colonial 192 Hobart Avenue Greenwich, CT 06831 $699,000 2,112 sq. ft. 7,841 sq. ft. $331
2017-03-17 Single Family Colonial; Georgian 31 Sawmill Lane Greenwich, CT 06830 $5,395,000 11,273 sq. ft. 131,551 sq. ft. $479
2017-03-17 Single Family Colonial 7 Ford Lane Greenwich, CT 06870 $6,250,000 6,355 sq. ft. 21,344 sq. ft. $983
2017-03-17 Single Family Colonial 23 Khakum Wood Road Greenwich, CT 06831 $11,000,000 13,063 sq. ft. 253,955 sq. ft. $842
2017-03-16 Single Family Cottage 89 Loughlin Avenue Greenwich, CT 06807 $899,000 1,188 sq. ft. 14,375 sq. ft. $757
2017-03-16 Single Family Colonial 172 Byram Shore Road Greenwich, CT 06830 $1,790,000 4,939 sq. ft. 21,780 sq. ft. $362
2017-03-10 Single Family Colonial 718 North Street Greenwich, CT 06831 $2,650,000 4,670 sq. ft. 201,247 sq. ft. $567
2017-03-10 Single Family Colonial 70 Zaccheus Mead Lane Greenwich, CT 06831 $5,495,000 6,892 sq. ft. 87,556 sq. ft. $797
2017-03-10 Single Family Georgian 116 Oneida Drive Greenwich, CT 06830 $25,000,000 9,781 sq. ft. 165,964 sq. ft. $2,556
2017-03-09 Single Family Colonial; Georgian 61 Winding Lane Greenwich, CT 06831 $3,980,000 5,832 sq. ft. 139,392 sq. ft. $682
2017-03-09 Single Family Colonial 61 Hunt Terrace Greenwich, CT 06831 $1,450,000 3,744 sq. ft. 31,363 sq. ft. $387
2017-03-09 Single Family Colonial 70 Bush Avenue Greenwich, CT 06830 $5,425,000 4,900 sq. ft. 23,958 sq. ft. $1,107
2017-03-08 Single Family Colonial 30 Owenoke Way Greenwich, CT 06878 $2,895,000 4,039 sq. ft. 17,860 sq. ft. $717
2017-03-07 Single Family Tudor 5 Wyckham Hill Lane Greenwich, CT 06831 $3,495,000 7,236 sq. ft. 192,535 sq. ft. $483
2017-03-06 Single Family Contemporary 22 Windsor Lane Greenwich, CT 06807 $1,195,000 2,388 sq. ft. 13,068 sq. ft. $500
2017-03-06 Single Family Colonial 93 Clapboard Ridge Road Greenwich, CT 06830 $7,195,000 9,494 sq. ft. 158,558 sq. ft. $758
2017-03-06 Single Family Colonial 21 Londonderry Drive Greenwich, CT 06830 $2,090,000 5,248 sq. ft. 87,120 sq. ft. $398
2017-03-06 Single Family Colonial 10 Pleasant View Place Greenwich, CT 06870 $2,495,000 4,366 sq. ft. 17,424 sq. ft. $571
2017-03-06 Single Family Colonial 3 Gaston Farm Road Greenwich, CT 06831 $2,900,000 8,880 sq. ft. 92,347 sq. ft. $327
2017-03-06 Single Family Colonial 14 Kernan Place Greenwich, CT 06870 $2,395,000 2,777 sq. ft. 17,424 sq. ft. $862
2017-03-03 Single Family Colonial 11 Carrington Drive Greenwich, CT 06831 $3,450,000 6,366 sq. ft. 174,676 sq. ft. $542
2017-03-03 Single Family Colonial 242 Riverside Avenue Greenwich, CT 06878 $3,349,000 3,458 sq. ft. 12,197 sq. ft. $968
2017-03-02 Single Family Colonial 106 Orchard Street Greenwich, CT 06807 $1,725,000 2,904 sq. ft. 17,424 sq. ft. $594
2017-03-01 Single Family Colonial 50 Hillcrest Park Road Greenwich, CT 06807 $2,699,000 6,062 sq. ft. 57,064 sq. ft. $445
2017-03-01 Single Family Colonial 390 Lake Avenue Greenwich, CT 06830 $4,199,000 6,882 sq. ft. 91,040 sq. ft. $610
2017-02-28 Single Family Colonial 20 Greenbriar Lane Greenwich, CT 06831 $2,495,000 4,686 sq. ft. 96,703 sq. ft. $532
2017-02-28 Single Family Farm House 747 Riversville Road Greenwich, CT 06831 $2,499,500 3,741 sq. ft. 198,198 sq. ft. $668
2017-02-24 Single Family Colonial 11 Grimes Road Greenwich, CT 06870 $2,575,000 3,924 sq. ft. 11,326 sq. ft. $656
2017-02-23 Single Family Colonial 7 Plow Lane Greenwich, CT 06830 $4,988,000 5,026 sq. ft. 27,007 sq. ft. $992
2017-02-22 Single Family Colonial 10 Shady Brook Lane Greenwich, CT 06870 $2,250,000 5,600 sq. ft. 17,424 sq. ft. $402
2017-02-22 Single Family Contemporary 15 Hycliff Road Greenwich, CT 06831 $2,650,000 5,212 sq. ft. 203,425 sq. ft. $508
2017-02-22 Single Family Contemporary; Barn 130 Old Church Road Greenwich, CT 06830 $3,495,000 4,350 sq. ft. 28,750 sq. ft. $803
2017-02-21 Single Family Colonial 35 Welwyn Road Greenwich, CT 06878 $2,295,000 3,381 sq. ft. 22,216 sq. ft. $679
2017-02-21 Single Family Colonial 14 The Avenue Greenwich, CT 06831 $939,000 1,972 sq. ft. 35,284 sq. ft. $476
2017-02-18 Single Family Colonial 25 Lower Cross Road Greenwich, CT 06830 $35,000,000 8,038 sq. ft. 3,484,800 sq. ft. $4,354
2017-02-17 Single Family Colonial 743 Lake Avenue Greenwich, CT 06830 $7,995,000 10,433 sq. ft. 114,563 sq. ft. $766
2017-02-16 Single Family Colonial; Antique 1044 North Street Greenwich, CT 06831 $1,175,000 2,327 sq. ft. 41,818 sq. ft. $505
2017-02-16 Single Family Colonial 5 Indian Head Road Greenwich, CT 06878 $5,175,000 6,700 sq. ft. 22,216 sq. ft. $772
2017-02-14 Single Family Colonial 219 Glenville Road Greenwich, CT 06831 $1,200,000 3,888 sq. ft. 7,405 sq. ft. $309
2017-02-13 Single Family Colonial Greenwich, CT $3,075,000 4,294 sq. ft. 13,504 sq. ft. $716
2017-02-13 Single Family Colonial 17 Candlelight Place Greenwich, CT 06830 $1,850,000 4,516 sq. ft. 37,462 sq. ft. $410
2017-02-09 Single Family Cape 30 Bote Road Greenwich, CT 06830 $1,595,000 2,944 sq. ft. 18,295 sq. ft. $542
2017-02-08 Single Family Colonial 11 Pleasant View Place Greenwich, CT 06870 $2,395,000 4,915 sq. ft. 27,443 sq. ft. $487
2017-02-08 Single Family Colonial 938 Lake Avenue Greenwich, CT 06831 $2,250,000 5,206 sq. ft. 120,226 sq. ft. $432
2017-02-06 Single Family Colonial; Contemporary 315 Field Point Road Greenwich, CT 06830 $1,795,000 4,746 sq. ft. 33,977 sq. ft. $378
2017-02-06 Single Family Colonial 21 Old Club House Road Greenwich, CT 06870 $4,295,000 4,800 sq. ft. 19,602 sq. ft. $895
2017-02-03 Single Family Colonial 106 Lockwood Road Greenwich, CT 06878 $3,595,000 5,975 sq. ft. 14,375 sq. ft. $602
2017-02-01 Single Family Colonial 85 Perkins Road Greenwich, CT 06830 $3,200,000 5,178 sq. ft. 87,991 sq. ft. $618
2017-01-31 Single Family Colonial 592 North Street Greenwich, CT 06830 $5,999,000 6,875 sq. ft. 87,120 sq. ft. $873
2017-01-30 Single Family Colonial 696 Lake Avenue Greenwich, CT 06830 $2,395,000 4,915 sq. ft. 104,544 sq. ft. $487
2017-01-28 Single Family Colonial 26 Forest Avenue Greenwich, CT 06870 $3,050,000 5,500 sq. ft. 19,166 sq. ft. $555
2017-01-28 Single Family Colonial 43 Richmond Hill Road Greenwich, CT 06831 $3,795,000 8,569 sq. ft. 174,240 sq. ft. $443
2017-01-27 Single Family Colonial 2 Lauder Way Greenwich, CT 06830 $6,750,000 6,149 sq. ft. 87,120 sq. ft. $1,098
2017-01-26 Single Family Farm House 7 Carriage Road Greenwich, CT 06807 $2,895,000 5,000 sq. ft. 43,996 sq. ft. $579
2017-01-25 Single Family Colonial 9 Mackenzie Glen Greenwich, CT 06830 $4,975,000 6,483 sq. ft. 53,143 sq. ft. $767
2017-01-25 Single Family Colonial 52 Lockwood Avenue Greenwich, CT 06870 $3,995,000 4,071 sq. ft. 14,810 sq. ft. $981
2017-01-25 Single Family Ranch 28 Homestead Lane Greenwich, CT 06831 $649,000 1,755 sq. ft. 6,098 sq. ft. $370
2017-01-23 Single Family Ranch 45 Doubling Road Greenwich, CT 06830 $1,675,000 2,435 sq. ft. 43,560 sq. ft. $688
2017-01-19 Single Family Colonial 22 Echo Lane Greenwich, CT 06830 $2,450,000 3,668 sq. ft. 24,394 sq. ft. $668
2017-01-18 Single Family Colonial 15 Indian Head Road Greenwich, CT 06878 $3,995,000 4,800 sq. ft. 18,295 sq. ft. $832
2017-01-12 Single Family Colonial 71 Porchuck Road Greenwich, CT 06831 $3,475,000 5,238 sq. ft. 178,596 sq. ft. $663
2017-01-12 Single Family Colonial 15 Sherwood Farm Lane Greenwich, CT 06831 $3,850,000 5,811 sq. ft. 46,174 sq. ft. $663
2017-01-11 Single Family Colonial 39 Mohawk Lane Greenwich, CT 06831 $2,495,000 5,045 sq. ft. 244,372 sq. ft. $495
2017-01-05 Single Family Colonial 110 Londonderry Drive Greenwich, CT 06830 $2,795,000 3,610 sq. ft. 89,734 sq. ft. $774
2016-12-21 Single Family Colonial 10 West Crossway Greenwich, CT 06870 $5,485,000 5,292 sq. ft. 19,166 sq. ft. $1,036
2016-12-13 Single Family Colonial 2 Ledge Road Greenwich, CT 06870 $4,650,000 6,390 sq. ft. 20,473 sq. ft. $728
2016-12-08 Single Family Colonial 5 Brownhouse Road Greenwich, CT 06870 $2,849,500 2,654 sq. ft. 10,454 sq. ft. $1,074
2016-11-30 Single Family Colonial 66 Halsey Drive Greenwich, CT 06870 $2,400,000 5,500 sq. ft. 21,780 sq. ft. $436
2016-11-29 Single Family Contemporary 280 Riversville Road Greenwich, CT 06831 $1,995,000 5,158 sq. ft. 158,123 sq. ft. $387
2016-11-22 Single Family Colonial Greenwich, CT $11,500,000 9,946 sq. ft. 182,081 sq. ft. $1,156
2016-11-22 Single Family Colonial Greenwich, CT $5,900,000 9,744 sq. ft. 174,240 sq. ft. $606
2016-11-19 Single Family Colonial 10 Hedgerow Lane Greenwich, CT 06831 $2,499,900 7,000 sq. ft. 87,120 sq. ft. $357
2016-11-19 Single Family Colonial 514 Round Hill Road Greenwich, CT 06831 $3,995,000 5,254 sq. ft. 174,676 sq. ft. $760
2016-11-17 Single Family Colonial 38 Aiken Road Greenwich, CT 06831 $4,800,000 6,755 sq. ft. 193,406 sq. ft. $711
2016-11-17 Single Family Colonial; Georgian 137 Old Mill Road Greenwich, CT 06831 $11,500,000 9,856 sq. ft. 176,854 sq. ft. $1,167
2016-11-16 Single Family Cape 23 Red Coat Lane Greenwich, CT 06830 $1,495,000 4,997 sq. ft. 87,556 sq. ft. $299
2016-11-15 Single Family Colonial 13 Meadow Wood Drive Greenwich, CT 06830 $2,650,000 3,465 sq. ft. 63,162 sq. ft. $765
2016-11-11 Single Family Colonial; Georgian 37 Calhoun Drive Greenwich, CT 06831 $5,995,000 9,326 sq. ft. 138,521 sq. ft. $643
2016-11-10 Single Family Contemporary 106 Porchuck Road Greenwich, CT 06831 $2,330,000 4,244 sq. ft. 178,160 sq. ft. $549
2016-11-09 Single Family Colonial Greenwich, CT $2,795,000 5,337 sq. ft. 23,087 sq. ft. $524
2016-11-08 Single Family Colonial Greenwich, CT $7,499,000 9,405 sq. ft. 94,090 sq. ft. $797
2016-11-04 Single Family Colonial 1 Belle Haven Place Greenwich, CT 06830 $6,295,000 7,765 sq. ft. 43,560 sq. ft. $811
2016-11-03 Single Family Colonial Greenwich, CT $1,145,000 3,600 sq. ft. 6,098 sq. ft. $318
2016-11-02 Single Family Ranch; Split Level 340 Cognewaugh Road Greenwich, CT 06807 $799,000 1,575 sq. ft. 43,996 sq. ft. $507
2016-10-31 Single Family Colonial 84 Perkins Road Greenwich, CT 06830 $1,599,000 3,270 sq. ft. 103,673 sq. ft. $489
2016-10-20 Single Family Colonial 55 Burning Tree Road Greenwich, CT 06830 $2,195,000 3,758 sq. ft. 97,139 sq. ft. $584
2016-10-20 Single Family Colonial 291 Stanwich Road Greenwich, CT 06830 $4,700,000 6,246 sq. ft. 87,120 sq. ft. $752
2016-10-18 Single Family Cape 4 Ocean View Avenue Greenwich, CT 06830 $649,000 1,295 sq. ft. 7,405 sq. ft. $501
2016-10-12 Single Family Colonial 27 Cobb Island Drive Greenwich, CT 06830 $2,115,000 4,639 sq. ft. 48,787 sq. ft. $456
2016-10-12 Single Family Split Level 84 Hunting Ridge Road Greenwich, CT 06831 $1,795,000 3,026 sq. ft. 199,505 sq. ft. $593
2016-10-07 Single Family Colonial; Georgian 1 Stormy Circle Drive Greenwich, CT 06830 $1,277,000 3,487 sq. ft. 13,939 sq. ft. $366
2016-10-05 Single Family Colonial 514 Valley Road Greenwich, CT 06807 $3,599,000 6,000 sq. ft. 60,984 sq. ft. $600
2016-10-03 Single Family Colonial; Ranch 85 Bowman Drive Greenwich, CT 06831 $1,249,000 4,554 sq. ft. 44,867 sq. ft. $274
2016-09-28 Single Family Colonial 27 Bowman Drive Greenwich, CT 06831 $2,349,000 6,622 sq. ft. 76,230 sq. ft. $355
2016-09-23 Single Family Cape Greenwich, CT $850,000 2,031 sq. ft. 19,602 sq. ft. $419
2016-09-20 Single Family Victorian 323 Sound Beach Avenue Greenwich, CT 06870 $2,150,000 3,301 sq. ft. 20,038 sq. ft. $651
2016-09-19 Single Family Colonial 180 Stanwich Road Greenwich, CT 06830 $2,195,000 3,106 sq. ft. 86,249 sq. ft. $707
2016-09-09 Single Family Colonial 15 Relay Place Greenwich, CT 06807 $1,850,000 2,713 sq. ft. 7,405 sq. ft. $682
2016-09-07 Single Family Victorian 100 Brookside Drive Greenwich, CT 06831 $2,995,000 4,309 sq. ft. 24,829 sq. ft. $695
2016-08-16 Single Family Georgian 110 Clapboard Ridge Road Greenwich, CT 06830 $29,500,000 16,893 sq. ft. 232,610 sq. ft. $1,746
2016-07-29 Single Family Colonial 85 Indian Head Road Greenwich, CT 06878 $6,750,000 6,958 sq. ft. 73,181 sq. ft. $970
2016-07-29 Single Family Colonial 82 Cat Rock Road Greenwich, CT 06807 $3,498,890 9,578 sq. ft. 88,427 sq. ft. $365
2016-07-17 Single Family Colonial 9 Game Cock Road Greenwich, CT 06830 $3,000,000 3,610 sq. ft. 11,761 sq. ft. $831
2016-07-15 Single Family Colonial Greenwich, CT $4,195,000 8,100 sq. ft. 88,427 sq. ft. $518
2016-06-27 Single Family Cape 327 Riversville Road Greenwich, CT 06831 $998,000 4,332 sq. ft. 93,654 sq. ft. $230
2016-06-06 Single Family Colonial; Georgian 3 Old Round Hill Lane Greenwich, CT 06831 $7,250,000 9,863 sq. ft. 88,427 sq. ft. $735
2016-06-01 Single Family Colonial 35 West Way Greenwich, CT 06870 $5,295,000 4,402 sq. ft. 15,682 sq. ft. $1,203
2016-05-20 Single Family Tudor 44 Mayo Avenue Greenwich, CT 06830 $19,900,000 12,411 sq. ft. 119,354 sq. ft. $1,603
2016-05-16 Single Family Ranch 10 Wynn Lane Greenwich, CT 06830 $1,895,000 7,397 sq. ft. 142,006 sq. ft. $256